sensor_id;sensor_type;location;lat;lon;timestamp;P1;durP1;ratioP1;P2;durP2;ratioP2
80334;SDS011;69653;52.674;13.574;2023-06-24T00:02:13;15.90;;;8.32;;
80334;SDS011;69653;52.674;13.574;2023-06-24T00:04:39;14.17;;;8.30;;
80334;SDS011;69653;52.674;13.574;2023-06-24T00:07:04;15.57;;;8.30;;
80334;SDS011;69653;52.674;13.574;2023-06-24T00:09:29;14.43;;;7.83;;
80334;SDS011;69653;52.674;13.574;2023-06-24T00:11:55;13.87;;;7.70;;
80334;SDS011;69653;52.674;13.574;2023-06-24T00:14:24;13.52;;;8.27;;
80334;SDS011;69653;52.674;13.574;2023-06-24T00:16:52;16.08;;;9.02;;
80334;SDS011;69653;52.674;13.574;2023-06-24T00:19:23;14.88;;;9.45;;
80334;SDS011;69653;52.674;13.574;2023-06-24T00:21:50;12.77;;;7.55;;
80334;SDS011;69653;52.674;13.574;2023-06-24T00:24:17;16.17;;;8.63;;
80334;SDS011;69653;52.674;13.574;2023-06-24T00:26:44;14.30;;;8.18;;
80334;SDS011;69653;52.674;13.574;2023-06-24T00:29:10;16.02;;;8.45;;
80334;SDS011;69653;52.674;13.574;2023-06-24T00:31:36;15.83;;;8.63;;
80334;SDS011;69653;52.674;13.574;2023-06-24T00:34:01;14.18;;;7.63;;
80334;SDS011;69653;52.674;13.574;2023-06-24T00:36:27;14.07;;;8.43;;
80334;SDS011;69653;52.674;13.574;2023-06-24T00:38:52;13.87;;;8.73;;
80334;SDS011;69653;52.674;13.574;2023-06-24T00:41:18;16.17;;;8.50;;
80334;SDS011;69653;52.674;13.574;2023-06-24T00:43:44;13.55;;;8.27;;
80334;SDS011;69653;52.674;13.574;2023-06-24T00:46:10;18.67;;;8.43;;
80334;SDS011;69653;52.674;13.574;2023-06-24T00:48:36;17.90;;;9.32;;
80334;SDS011;69653;52.674;13.574;2023-06-24T00:51:01;16.77;;;8.40;;
80334;SDS011;69653;52.674;13.574;2023-06-24T00:53:26;15.93;;;8.38;;
80334;SDS011;69653;52.674;13.574;2023-06-24T00:55:53;14.30;;;8.70;;
80334;SDS011;69653;52.674;13.574;2023-06-24T00:58:19;13.43;;;8.20;;
80334;SDS011;69653;52.674;13.574;2023-06-24T01:00:46;15.98;;;8.82;;
80334;SDS011;69653;52.674;13.574;2023-06-24T01:03:13;15.38;;;8.52;;
80334;SDS011;69653;52.674;13.574;2023-06-24T01:05:38;17.83;;;9.70;;
80334;SDS011;69653;52.674;13.574;2023-06-24T01:08:05;16.35;;;9.30;;
80334;SDS011;69653;52.674;13.574;2023-06-24T01:10:31;16.65;;;9.55;;
80334;SDS011;69653;52.674;13.574;2023-06-24T01:12:56;19.27;;;9.40;;
80334;SDS011;69653;52.674;13.574;2023-06-24T01:15:21;15.63;;;9.73;;
80334;SDS011;69653;52.674;13.574;2023-06-24T01:20:45;16.80;;;9.52;;
80334;SDS011;69653;52.674;13.574;2023-06-24T01:31:44;21.08;;;11.15;;
80334;SDS011;69653;52.674;13.574;2023-06-24T01:39:30;24.02;;;11.90;;
80334;SDS011;69653;52.674;13.574;2023-06-24T01:42:00;22.70;;;12.32;;
80334;SDS011;69653;52.674;13.574;2023-06-24T01:44:32;23.67;;;12.13;;
80334;SDS011;69653;52.674;13.574;2023-06-24T01:46:59;23.13;;;12.55;;
80334;SDS011;69653;52.674;13.574;2023-06-24T01:49:27;24.17;;;13.18;;
80334;SDS011;69653;52.674;13.574;2023-06-24T01:51:55;23.33;;;12.10;;
80334;SDS011;69653;52.674;13.574;2023-06-24T01:54:22;22.58;;;11.77;;
80334;SDS011;69653;52.674;13.574;2023-06-24T01:56:50;24.05;;;12.73;;
80334;SDS011;69653;52.674;13.574;2023-06-24T01:59:19;24.00;;;13.13;;
80334;SDS011;69653;52.674;13.574;2023-06-24T02:01:45;23.02;;;12.00;;
80334;SDS011;69653;52.674;13.574;2023-06-24T02:04:11;24.40;;;12.73;;
80334;SDS011;69653;52.674;13.574;2023-06-24T02:06:39;19.63;;;11.98;;
80334;SDS011;69653;52.674;13.574;2023-06-24T02:09:06;21.35;;;12.57;;
80334;SDS011;69653;52.674;13.574;2023-06-24T02:11:32;21.88;;;12.68;;
80334;SDS011;69653;52.674;13.574;2023-06-24T02:13:59;22.58;;;12.10;;
80334;SDS011;69653;52.674;13.574;2023-06-24T02:16:25;20.77;;;11.68;;
80334;SDS011;69653;52.674;13.574;2023-06-24T02:18:52;21.13;;;11.10;;
80334;SDS011;69653;52.674;13.574;2023-06-24T02:21:20;22.38;;;11.70;;
80334;SDS011;69653;52.674;13.574;2023-06-24T02:23:46;23.83;;;11.75;;
80334;SDS011;69653;52.674;13.574;2023-06-24T02:26:13;21.60;;;11.35;;
80334;SDS011;69653;52.674;13.574;2023-06-24T02:28:40;22.23;;;11.23;;
80334;SDS011;69653;52.674;13.574;2023-06-24T02:31:06;21.05;;;11.55;;
80334;SDS011;69653;52.674;13.574;2023-06-24T02:33:34;21.33;;;11.88;;
80334;SDS011;69653;52.674;13.574;2023-06-24T02:35:59;21.23;;;11.65;;
80334;SDS011;69653;52.674;13.574;2023-06-24T02:38:25;16.45;;;10.27;;
80334;SDS011;69653;52.674;13.574;2023-06-24T02:40:50;20.10;;;10.65;;
80334;SDS011;69653;52.674;13.574;2023-06-24T02:43:16;17.85;;;11.02;;
80334;SDS011;69653;52.674;13.574;2023-06-24T02:45:42;17.85;;;10.30;;
80334;SDS011;69653;52.674;13.574;2023-06-24T02:48:08;16.25;;;9.38;;
80334;SDS011;69653;52.674;13.574;2023-06-24T02:50:36;18.15;;;10.27;;
80334;SDS011;69653;52.674;13.574;2023-06-24T02:53:04;18.52;;;10.10;;
80334;SDS011;69653;52.674;13.574;2023-06-24T02:55:30;16.42;;;9.63;;
80334;SDS011;69653;52.674;13.574;2023-06-24T02:57:57;16.10;;;10.88;;
80334;SDS011;69653;52.674;13.574;2023-06-24T03:00:23;18.73;;;9.82;;
80334;SDS011;69653;52.674;13.574;2023-06-24T03:02:49;17.10;;;9.80;;
80334;SDS011;69653;52.674;13.574;2023-06-24T03:05:15;18.33;;;10.20;;
80334;SDS011;69653;52.674;13.574;2023-06-24T03:07:41;15.85;;;10.20;;
80334;SDS011;69653;52.674;13.574;2023-06-24T03:10:07;16.40;;;9.20;;
80334;SDS011;69653;52.674;13.574;2023-06-24T03:12:33;15.15;;;8.55;;
80334;SDS011;69653;52.674;13.574;2023-06-24T03:14:59;16.65;;;8.88;;
80334;SDS011;69653;52.674;13.574;2023-06-24T03:17:26;16.63;;;9.05;;
80334;SDS011;69653;52.674;13.574;2023-06-24T03:19:52;16.33;;;9.27;;
80334;SDS011;69653;52.674;13.574;2023-06-24T03:22:17;16.63;;;9.40;;
80334;SDS011;69653;52.674;13.574;2023-06-24T03:24:43;15.45;;;9.15;;
80334;SDS011;69653;52.674;13.574;2023-06-24T03:27:08;14.57;;;9.18;;
80334;SDS011;69653;52.674;13.574;2023-06-24T03:29:34;14.60;;;8.65;;
80334;SDS011;69653;52.674;13.574;2023-06-24T03:31:59;15.40;;;9.32;;
80334;SDS011;69653;52.674;13.574;2023-06-24T03:34:25;16.27;;;8.93;;
80334;SDS011;69653;52.674;13.574;2023-06-24T03:36:52;16.13;;;9.13;;
80334;SDS011;69653;52.674;13.574;2023-06-24T03:39:19;14.77;;;8.40;;
80334;SDS011;69653;52.674;13.574;2023-06-24T03:41:45;14.40;;;8.73;;
80334;SDS011;69653;52.674;13.574;2023-06-24T03:44:11;15.68;;;9.32;;
80334;SDS011;69653;52.674;13.574;2023-06-24T03:46:36;16.52;;;10.80;;
80334;SDS011;69653;52.674;13.574;2023-06-24T03:49:02;14.60;;;8.40;;
80334;SDS011;69653;52.674;13.574;2023-06-24T03:51:27;15.98;;;9.75;;
80334;SDS011;69653;52.674;13.574;2023-06-24T03:53:53;15.32;;;9.43;;
80334;SDS011;69653;52.674;13.574;2023-06-24T03:56:18;16.40;;;9.27;;
80334;SDS011;69653;52.674;13.574;2023-06-24T03:58:43;18.57;;;8.60;;
80334;SDS011;69653;52.674;13.574;2023-06-24T04:01:09;16.53;;;8.57;;
80334;SDS011;69653;52.674;13.574;2023-06-24T04:03:34;15.93;;;9.50;;
80334;SDS011;69653;52.674;13.574;2023-06-24T04:05:59;15.60;;;9.43;;
80334;SDS011;69653;52.674;13.574;2023-06-24T04:08:27;16.42;;;8.55;;
80334;SDS011;69653;52.674;13.574;2023-06-24T04:10:55;16.73;;;9.07;;
80334;SDS011;69653;52.674;13.574;2023-06-24T04:13:21;18.15;;;9.45;;
80334;SDS011;69653;52.674;13.574;2023-06-24T04:15:46;20.80;;;10.10;;
80334;SDS011;69653;52.674;13.574;2023-06-24T04:18:12;14.70;;;8.32;;
80334;SDS011;69653;52.674;13.574;2023-06-24T04:20:37;16.07;;;9.33;;
80334;SDS011;69653;52.674;13.574;2023-06-24T04:23:03;18.50;;;8.83;;
80334;SDS011;69653;52.674;13.574;2023-06-24T04:25:30;17.25;;;9.10;;
80334;SDS011;69653;52.674;13.574;2023-06-24T04:27:56;14.57;;;8.90;;
80334;SDS011;69653;52.674;13.574;2023-06-24T04:30:22;15.77;;;8.77;;
80334;SDS011;69653;52.674;13.574;2023-06-24T04:32:47;13.27;;;7.63;;
80334;SDS011;69653;52.674;13.574;2023-06-24T04:35:13;13.30;;;7.72;;
80334;SDS011;69653;52.674;13.574;2023-06-24T04:37:38;13.52;;;7.95;;
80334;SDS011;69653;52.674;13.574;2023-06-24T04:40:04;12.60;;;7.47;;
80334;SDS011;69653;52.674;13.574;2023-06-24T04:42:31;16.80;;;8.23;;
80334;SDS011;69653;52.674;13.574;2023-06-24T04:44:56;15.90;;;8.03;;
80334;SDS011;69653;52.674;13.574;2023-06-24T04:47:22;14.15;;;7.50;;
80334;SDS011;69653;52.674;13.574;2023-06-24T04:49:47;14.63;;;7.67;;
80334;SDS011;69653;52.674;13.574;2023-06-24T04:52:12;12.70;;;7.50;;
80334;SDS011;69653;52.674;13.574;2023-06-24T04:54:38;12.73;;;7.78;;
80334;SDS011;69653;52.674;13.574;2023-06-24T04:57:09;12.73;;;7.80;;
80334;SDS011;69653;52.674;13.574;2023-06-24T04:59:47;12.40;;;7.57;;
80334;SDS011;69653;52.674;13.574;2023-06-24T05:02:12;12.23;;;7.57;;
80334;SDS011;69653;52.674;13.574;2023-06-24T05:04:38;12.40;;;7.93;;
80334;SDS011;69653;52.674;13.574;2023-06-24T05:07:03;16.10;;;9.37;;
80334;SDS011;69653;52.674;13.574;2023-06-24T05:09:28;14.60;;;8.50;;
80334;SDS011;69653;52.674;13.574;2023-06-24T05:11:54;11.43;;;6.77;;
80334;SDS011;69653;52.674;13.574;2023-06-24T05:14:19;12.90;;;7.00;;
80334;SDS011;69653;52.674;13.574;2023-06-24T05:16:44;11.27;;;7.37;;
80334;SDS011;69653;52.674;13.574;2023-06-24T05:19:10;11.68;;;6.57;;
80334;SDS011;69653;52.674;13.574;2023-06-24T05:21:35;12.80;;;6.90;;
80334;SDS011;69653;52.674;13.574;2023-06-24T05:24:01;12.03;;;6.83;;
80334;SDS011;69653;52.674;13.574;2023-06-24T05:26:26;10.27;;;6.57;;
80334;SDS011;69653;52.674;13.574;2023-06-24T05:28:51;12.20;;;6.53;;
80334;SDS011;69653;52.674;13.574;2023-06-24T05:31:16;12.07;;;7.07;;
80334;SDS011;69653;52.674;13.574;2023-06-24T05:33:43;12.35;;;7.13;;
80334;SDS011;69653;52.674;13.574;2023-06-24T05:36:08;11.03;;;6.37;;
80334;SDS011;69653;52.674;13.574;2023-06-24T05:38:34;11.07;;;6.27;;
80334;SDS011;69653;52.674;13.574;2023-06-24T05:40:59;12.77;;;7.17;;
80334;SDS011;69653;52.674;13.574;2023-06-24T05:43:27;11.90;;;6.63;;
80334;SDS011;69653;52.674;13.574;2023-06-24T05:45:52;10.73;;;6.05;;
80334;SDS011;69653;52.674;13.574;2023-06-24T05:48:17;10.37;;;7.03;;
80334;SDS011;69653;52.674;13.574;2023-06-24T05:50:43;12.53;;;6.23;;
80334;SDS011;69653;52.674;13.574;2023-06-24T05:53:08;10.30;;;5.47;;
80334;SDS011;69653;52.674;13.574;2023-06-24T05:55:33;11.43;;;5.97;;
80334;SDS011;69653;52.674;13.574;2023-06-24T05:57:58;9.07;;;5.63;;
80334;SDS011;69653;52.674;13.574;2023-06-24T06:00:24;10.43;;;5.80;;
80334;SDS011;69653;52.674;13.574;2023-06-24T06:02:49;10.60;;;5.80;;
80334;SDS011;69653;52.674;13.574;2023-06-24T06:05:14;10.00;;;5.77;;
80334;SDS011;69653;52.674;13.574;2023-06-24T06:07:40;10.63;;;5.93;;
80334;SDS011;69653;52.674;13.574;2023-06-24T06:10:06;10.65;;;5.88;;
80334;SDS011;69653;52.674;13.574;2023-06-24T06:12:32;17.05;;;9.63;;
80334;SDS011;69653;52.674;13.574;2023-06-24T06:14:57;9.65;;;6.35;;
80334;SDS011;69653;52.674;13.574;2023-06-24T06:17:23;9.70;;;5.63;;
80334;SDS011;69653;52.674;13.574;2023-06-24T06:19:48;8.63;;;5.07;;
80334;SDS011;69653;52.674;13.574;2023-06-24T06:22:14;9.53;;;5.90;;
80334;SDS011;69653;52.674;13.574;2023-06-24T06:24:40;8.70;;;5.20;;
80334;SDS011;69653;52.674;13.574;2023-06-24T06:27:09;10.63;;;5.20;;
80334;SDS011;69653;52.674;13.574;2023-06-24T06:29:34;8.77;;;5.53;;
80334;SDS011;69653;52.674;13.574;2023-06-24T06:32:00;7.88;;;5.00;;
80334;SDS011;69653;52.674;13.574;2023-06-24T06:34:25;9.80;;;5.30;;
80334;SDS011;69653;52.674;13.574;2023-06-24T06:36:50;9.10;;;4.90;;
80334;SDS011;69653;52.674;13.574;2023-06-24T06:39:16;8.73;;;4.63;;
80334;SDS011;69653;52.674;13.574;2023-06-24T06:41:41;8.10;;;4.60;;
80334;SDS011;69653;52.674;13.574;2023-06-24T06:44:06;8.77;;;4.67;;
80334;SDS011;69653;52.674;13.574;2023-06-24T06:46:32;8.18;;;4.60;;
80334;SDS011;69653;52.674;13.574;2023-06-24T06:48:57;11.93;;;6.45;;
80334;SDS011;69653;52.674;13.574;2023-06-24T06:51:24;10.70;;;5.88;;
80334;SDS011;69653;52.674;13.574;2023-06-24T06:53:50;8.02;;;5.40;;
80334;SDS011;69653;52.674;13.574;2023-06-24T06:56:16;8.60;;;4.97;;
80334;SDS011;69653;52.674;13.574;2023-06-24T06:58:43;8.75;;;4.45;;
80334;SDS011;69653;52.674;13.574;2023-06-24T07:01:08;7.20;;;4.57;;
80334;SDS011;69653;52.674;13.574;2023-06-24T07:03:33;5.80;;;3.57;;
80334;SDS011;69653;52.674;13.574;2023-06-24T07:05:59;8.00;;;4.60;;
80334;SDS011;69653;52.674;13.574;2023-06-24T07:08:24;9.93;;;4.73;;
80334;SDS011;69653;52.674;13.574;2023-06-24T07:10:50;8.60;;;4.50;;
80334;SDS011;69653;52.674;13.574;2023-06-24T07:13:15;8.50;;;4.88;;
80334;SDS011;69653;52.674;13.574;2023-06-24T07:15:40;8.33;;;4.60;;
80334;SDS011;69653;52.674;13.574;2023-06-24T07:18:06;6.13;;;3.97;;
80334;SDS011;69653;52.674;13.574;2023-06-24T07:20:31;7.70;;;4.33;;
80334;SDS011;69653;52.674;13.574;2023-06-24T07:22:56;7.93;;;4.03;;
80334;SDS011;69653;52.674;13.574;2023-06-24T07:25:21;7.13;;;4.30;;
80334;SDS011;69653;52.674;13.574;2023-06-24T07:27:47;6.53;;;3.60;;
80334;SDS011;69653;52.674;13.574;2023-06-24T07:30:12;7.20;;;3.83;;
80334;SDS011;69653;52.674;13.574;2023-06-24T07:32:37;7.35;;;3.95;;
80334;SDS011;69653;52.674;13.574;2023-06-24T07:35:03;7.43;;;4.03;;
80334;SDS011;69653;52.674;13.574;2023-06-24T07:37:28;7.03;;;3.72;;
80334;SDS011;69653;52.674;13.574;2023-06-24T07:39:54;6.60;;;4.40;;
80334;SDS011;69653;52.674;13.574;2023-06-24T07:42:19;9.90;;;4.27;;
80334;SDS011;69653;52.674;13.574;2023-06-24T07:44:45;8.10;;;4.07;;
80334;SDS011;69653;52.674;13.574;2023-06-24T07:47:11;6.85;;;4.10;;
80334;SDS011;69653;52.674;13.574;2023-06-24T07:49:36;7.68;;;3.85;;
80334;SDS011;69653;52.674;13.574;2023-06-24T07:52:01;6.43;;;4.10;;
80334;SDS011;69653;52.674;13.574;2023-06-24T07:54:27;6.40;;;4.03;;
80334;SDS011;69653;52.674;13.574;2023-06-24T07:56:52;10.80;;;5.83;;
80334;SDS011;69653;52.674;13.574;2023-06-24T07:59:17;7.07;;;4.20;;
80334;SDS011;69653;52.674;13.574;2023-06-24T08:01:43;8.07;;;4.47;;
80334;SDS011;69653;52.674;13.574;2023-06-24T08:04:08;7.07;;;4.37;;
80334;SDS011;69653;52.674;13.574;2023-06-24T08:06:33;8.07;;;4.13;;
80334;SDS011;69653;52.674;13.574;2023-06-24T08:08:59;5.70;;;3.60;;
80334;SDS011;69653;52.674;13.574;2023-06-24T08:11:24;6.80;;;3.90;;
80334;SDS011;69653;52.674;13.574;2023-06-24T08:13:50;6.57;;;3.72;;
80334;SDS011;69653;52.674;13.574;2023-06-24T08:16:16;5.47;;;3.70;;
80334;SDS011;69653;52.674;13.574;2023-06-24T08:18:42;8.18;;;3.80;;
80334;SDS011;69653;52.674;13.574;2023-06-24T08:21:07;6.00;;;3.70;;
80334;SDS011;69653;52.674;13.574;2023-06-24T08:23:33;4.87;;;3.37;;
80334;SDS011;69653;52.674;13.574;2023-06-24T08:25:58;6.27;;;3.03;;
80334;SDS011;69653;52.674;13.574;2023-06-24T08:28:23;6.27;;;3.43;;
80334;SDS011;69653;52.674;13.574;2023-06-24T08:30:49;5.93;;;3.17;;
80334;SDS011;69653;52.674;13.574;2023-06-24T08:33:14;7.63;;;4.47;;
80334;SDS011;69653;52.674;13.574;2023-06-24T08:35:39;6.70;;;3.00;;
80334;SDS011;69653;52.674;13.574;2023-06-24T08:38:04;6.30;;;3.77;;
80334;SDS011;69653;52.674;13.574;2023-06-24T08:40:30;8.37;;;3.60;;
80334;SDS011;69653;52.674;13.574;2023-06-24T08:42:55;5.53;;;3.53;;
80334;SDS011;69653;52.674;13.574;2023-06-24T08:45:21;5.40;;;3.50;;
80334;SDS011;69653;52.674;13.574;2023-06-24T08:47:47;4.97;;;3.20;;
80334;SDS011;69653;52.674;13.574;2023-06-24T08:50:14;5.57;;;2.92;;
80334;SDS011;69653;52.674;13.574;2023-06-24T08:52:42;6.43;;;3.67;;
80334;SDS011;69653;52.674;13.574;2023-06-24T08:55:10;7.07;;;3.20;;
80334;SDS011;69653;52.674;13.574;2023-06-24T08:57:41;6.00;;;3.08;;
80334;SDS011;69653;52.674;13.574;2023-06-24T09:00:06;7.60;;;3.33;;
80334;SDS011;69653;52.674;13.574;2023-06-24T09:02:36;5.68;;;3.00;;
80334;SDS011;69653;52.674;13.574;2023-06-24T09:05:03;5.00;;;3.20;;
80334;SDS011;69653;52.674;13.574;2023-06-24T09:07:32;7.40;;;3.75;;
80334;SDS011;69653;52.674;13.574;2023-06-24T09:09:58;5.68;;;3.28;;
80334;SDS011;69653;52.674;13.574;2023-06-24T09:12:26;6.50;;;3.60;;
80334;SDS011;69653;52.674;13.574;2023-06-24T09:14:52;6.40;;;3.60;;
80334;SDS011;69653;52.674;13.574;2023-06-24T09:17:18;6.17;;;3.87;;
80334;SDS011;69653;52.674;13.574;2023-06-24T09:19:47;7.25;;;3.95;;
80334;SDS011;69653;52.674;13.574;2023-06-24T09:22:16;8.43;;;3.78;;
80334;SDS011;69653;52.674;13.574;2023-06-24T09:24:44;7.30;;;3.58;;
80334;SDS011;69653;52.674;13.574;2023-06-24T09:27:13;7.10;;;3.58;;
80334;SDS011;69653;52.674;13.574;2023-06-24T09:29:46;6.50;;;3.63;;
80334;SDS011;69653;52.674;13.574;2023-06-24T09:32:13;6.05;;;3.42;;
80334;SDS011;69653;52.674;13.574;2023-06-24T09:34:40;6.15;;;3.50;;
80334;SDS011;69653;52.674;13.574;2023-06-24T09:37:06;6.22;;;3.53;;
80334;SDS011;69653;52.674;13.574;2023-06-24T09:39:39;5.40;;;3.00;;
80334;SDS011;69653;52.674;13.574;2023-06-24T09:42:05;6.40;;;3.50;;
80334;SDS011;69653;52.674;13.574;2023-06-24T09:44:35;6.70;;;3.63;;
80334;SDS011;69653;52.674;13.574;2023-06-24T09:47:01;5.50;;;3.75;;
80334;SDS011;69653;52.674;13.574;2023-06-24T09:49:28;5.75;;;3.58;;
80334;SDS011;69653;52.674;13.574;2023-06-24T09:51:55;6.10;;;3.65;;
80334;SDS011;69653;52.674;13.574;2023-06-24T09:54:26;7.03;;;3.83;;
80334;SDS011;69653;52.674;13.574;2023-06-24T09:56:56;6.68;;;3.88;;
80334;SDS011;69653;52.674;13.574;2023-06-24T09:59:30;5.50;;;3.45;;
80334;SDS011;69653;52.674;13.574;2023-06-24T10:02:01;8.13;;;3.63;;
80334;SDS011;69653;52.674;13.574;2023-06-24T10:04:29;6.65;;;3.33;;
80334;SDS011;69653;52.674;13.574;2023-06-24T10:06:56;6.15;;;3.60;;
80334;SDS011;69653;52.674;13.574;2023-06-24T10:09:23;5.57;;;3.85;;
80334;SDS011;69653;52.674;13.574;2023-06-24T10:11:50;8.27;;;3.38;;
80334;SDS011;69653;52.674;13.574;2023-06-24T10:14:16;5.18;;;3.50;;
80334;SDS011;69653;52.674;13.574;2023-06-24T10:16:43;7.05;;;3.85;;
80334;SDS011;69653;52.674;13.574;2023-06-24T10:19:19;5.82;;;3.50;;
80334;SDS011;69653;52.674;13.574;2023-06-24T10:21:50;5.32;;;3.38;;
80334;SDS011;69653;52.674;13.574;2023-06-24T10:24:29;5.32;;;3.50;;
80334;SDS011;69653;52.674;13.574;2023-06-24T10:27:00;6.50;;;3.28;;
80334;SDS011;69653;52.674;13.574;2023-06-24T10:29:35;6.28;;;3.70;;
80334;SDS011;69653;52.674;13.574;2023-06-24T10:34:45;4.53;;;3.05;;
80334;SDS011;69653;52.674;13.574;2023-06-24T10:37:20;5.78;;;3.17;;
80334;SDS011;69653;52.674;13.574;2023-06-24T10:42:26;9.95;;;6.65;;
80334;SDS011;69653;52.674;13.574;2023-06-24T10:47:40;5.30;;;3.08;;
80334;SDS011;69653;52.674;13.574;2023-06-24T10:50:08;5.60;;;2.83;;
80334;SDS011;69653;52.674;13.574;2023-06-24T10:52:43;6.93;;;3.80;;
80334;SDS011;69653;52.674;13.574;2023-06-24T10:55:10;5.72;;;3.67;;
80334;SDS011;69653;52.674;13.574;2023-06-24T10:57:37;5.95;;;3.10;;
80334;SDS011;69653;52.674;13.574;2023-06-24T11:00:03;7.68;;;3.60;;
80334;SDS011;69653;52.674;13.574;2023-06-24T11:02:29;5.97;;;3.50;;
80334;SDS011;69653;52.674;13.574;2023-06-24T11:04:58;7.20;;;3.20;;
80334;SDS011;69653;52.674;13.574;2023-06-24T11:07:25;6.03;;;3.45;;
80334;SDS011;69653;52.674;13.574;2023-06-24T11:09:53;12.32;;;6.38;;
80334;SDS011;69653;52.674;13.574;2023-06-24T11:12:26;6.30;;;3.90;;
80334;SDS011;69653;52.674;13.574;2023-06-24T11:15:01;7.13;;;3.58;;
80334;SDS011;69653;52.674;13.574;2023-06-24T11:17:28;6.93;;;3.03;;
80334;SDS011;69653;52.674;13.574;2023-06-24T11:19:54;7.28;;;3.38;;
80334;SDS011;69653;52.674;13.574;2023-06-24T11:22:21;6.22;;;3.22;;
80334;SDS011;69653;52.674;13.574;2023-06-24T11:24:47;5.57;;;3.00;;
80334;SDS011;69653;52.674;13.574;2023-06-24T11:27:13;5.43;;;2.90;;
80334;SDS011;69653;52.674;13.574;2023-06-24T11:29:38;6.40;;;3.60;;
80334;SDS011;69653;52.674;13.574;2023-06-24T11:32:06;5.00;;;3.10;;
80334;SDS011;69653;52.674;13.574;2023-06-24T11:34:33;7.93;;;3.75;;
80334;SDS011;69653;52.674;13.574;2023-06-24T11:36:58;5.50;;;3.38;;
80334;SDS011;69653;52.674;13.574;2023-06-24T11:39:24;7.17;;;3.00;;
80334;SDS011;69653;52.674;13.574;2023-06-24T11:41:51;6.15;;;3.13;;
80334;SDS011;69653;52.674;13.574;2023-06-24T11:44:18;5.97;;;3.13;;
80334;SDS011;69653;52.674;13.574;2023-06-24T11:46:45;6.45;;;2.88;;
80334;SDS011;69653;52.674;13.574;2023-06-24T11:49:10;6.10;;;3.20;;
80334;SDS011;69653;52.674;13.574;2023-06-24T11:51:35;5.60;;;3.17;;
80334;SDS011;69653;52.674;13.574;2023-06-24T11:54:05;5.15;;;3.30;;
80334;SDS011;69653;52.674;13.574;2023-06-24T11:59:06;5.30;;;2.85;;
80334;SDS011;69653;52.674;13.574;2023-06-24T12:01:35;7.85;;;3.20;;
80334;SDS011;69653;52.674;13.574;2023-06-24T12:04:10;4.93;;;2.75;;
80334;SDS011;69653;52.674;13.574;2023-06-24T12:06:39;7.80;;;3.67;;
80334;SDS011;69653;52.674;13.574;2023-06-24T12:09:08;5.72;;;3.60;;
80334;SDS011;69653;52.674;13.574;2023-06-24T12:11:34;9.32;;;3.50;;
80334;SDS011;69653;52.674;13.574;2023-06-24T12:13:59;5.50;;;3.38;;
80334;SDS011;69653;52.674;13.574;2023-06-24T12:16:25;5.43;;;3.42;;
80334;SDS011;69653;52.674;13.574;2023-06-24T12:18:51;7.18;;;3.22;;
80334;SDS011;69653;52.674;13.574;2023-06-24T12:21:17;5.35;;;3.08;;
80334;SDS011;69653;52.674;13.574;2023-06-24T12:23:42;6.63;;;2.90;;
80334;SDS011;69653;52.674;13.574;2023-06-24T12:26:08;4.45;;;2.80;;
80334;SDS011;69653;52.674;13.574;2023-06-24T12:28:33;4.93;;;2.77;;
80334;SDS011;69653;52.674;13.574;2023-06-24T12:30:58;4.67;;;2.70;;
80334;SDS011;69653;52.674;13.574;2023-06-24T12:33:24;6.00;;;2.70;;
80334;SDS011;69653;52.674;13.574;2023-06-24T12:35:49;4.93;;;2.67;;
80334;SDS011;69653;52.674;13.574;2023-06-24T12:38:14;4.60;;;2.90;;
80334;SDS011;69653;52.674;13.574;2023-06-24T12:40:41;6.03;;;3.15;;
80334;SDS011;69653;52.674;13.574;2023-06-24T12:43:06;7.27;;;3.40;;
80334;SDS011;69653;52.674;13.574;2023-06-24T12:45:31;5.70;;;3.30;;
80334;SDS011;69653;52.674;13.574;2023-06-24T12:47:57;7.40;;;3.10;;
80334;SDS011;69653;52.674;13.574;2023-06-24T12:50:22;5.53;;;3.00;;
80334;SDS011;69653;52.674;13.574;2023-06-24T12:52:47;5.33;;;3.37;;
80334;SDS011;69653;52.674;13.574;2023-06-24T12:55:13;7.32;;;3.58;;
80334;SDS011;69653;52.674;13.574;2023-06-24T12:57:38;5.28;;;3.28;;
80334;SDS011;69653;52.674;13.574;2023-06-24T13:00:04;5.43;;;2.77;;
80334;SDS011;69653;52.674;13.574;2023-06-24T13:02:30;6.38;;;2.88;;
80334;SDS011;69653;52.674;13.574;2023-06-24T13:04:55;4.95;;;2.83;;
80334;SDS011;69653;52.674;13.574;2023-06-24T13:07:21;5.17;;;2.83;;
80334;SDS011;69653;52.674;13.574;2023-06-24T13:09:46;5.80;;;2.93;;
80334;SDS011;69653;52.674;13.574;2023-06-24T13:12:11;6.23;;;2.90;;
80334;SDS011;69653;52.674;13.574;2023-06-24T13:14:37;4.93;;;2.88;;
80334;SDS011;69653;52.674;13.574;2023-06-24T13:17:02;5.87;;;3.40;;
80334;SDS011;69653;52.674;13.574;2023-06-24T13:19:27;6.88;;;3.33;;
80334;SDS011;69653;52.674;13.574;2023-06-24T13:21:53;4.93;;;2.70;;
80334;SDS011;69653;52.674;13.574;2023-06-24T13:24:18;6.27;;;3.10;;
80334;SDS011;69653;52.674;13.574;2023-06-24T13:26:43;4.80;;;3.00;;
80334;SDS011;69653;52.674;13.574;2023-06-24T13:29:09;5.78;;;2.90;;
80334;SDS011;69653;52.674;13.574;2023-06-24T13:31:35;5.97;;;3.10;;
80334;SDS011;69653;52.674;13.574;2023-06-24T13:34:00;5.78;;;3.10;;
80334;SDS011;69653;52.674;13.574;2023-06-24T13:36:32;5.60;;;2.73;;
80334;SDS011;69653;52.674;13.574;2023-06-24T13:39:00;4.68;;;2.90;;
80334;SDS011;69653;52.674;13.574;2023-06-24T13:41:27;5.82;;;3.22;;
80334;SDS011;69653;52.674;13.574;2023-06-24T13:43:55;5.25;;;3.03;;
80334;SDS011;69653;52.674;13.574;2023-06-24T13:46:21;5.55;;;2.72;;
80334;SDS011;69653;52.674;13.574;2023-06-24T13:48:47;5.70;;;3.13;;
80334;SDS011;69653;52.674;13.574;2023-06-24T13:51:14;6.47;;;3.35;;
80334;SDS011;69653;52.674;13.574;2023-06-24T13:53:39;6.43;;;2.83;;
80334;SDS011;69653;52.674;13.574;2023-06-24T13:56:05;5.57;;;2.90;;
80334;SDS011;69653;52.674;13.574;2023-06-24T13:58:30;6.00;;;2.88;;
80334;SDS011;69653;52.674;13.574;2023-06-24T14:00:55;6.37;;;3.50;;
80334;SDS011;69653;52.674;13.574;2023-06-24T14:03:21;5.10;;;3.03;;
80334;SDS011;69653;52.674;13.574;2023-06-24T14:05:46;5.43;;;2.90;;
80334;SDS011;69653;52.674;13.574;2023-06-24T14:08:11;11.00;;;6.00;;
80334;SDS011;69653;52.674;13.574;2023-06-24T14:10:37;8.20;;;4.10;;
80334;SDS011;69653;52.674;13.574;2023-06-24T14:13:02;8.77;;;4.27;;
80334;SDS011;69653;52.674;13.574;2023-06-24T14:15:27;6.63;;;3.38;;
80334;SDS011;69653;52.674;13.574;2023-06-24T14:17:53;5.70;;;3.03;;
80334;SDS011;69653;52.674;13.574;2023-06-24T14:20:18;8.50;;;4.00;;
80334;SDS011;69653;52.674;13.574;2023-06-24T14:22:44;5.75;;;2.95;;
80334;SDS011;69653;52.674;13.574;2023-06-24T14:25:09;6.63;;;2.87;;
80334;SDS011;69653;52.674;13.574;2023-06-24T14:27:35;4.53;;;2.50;;
80334;SDS011;69653;52.674;13.574;2023-06-24T14:30:00;5.00;;;3.00;;
80334;SDS011;69653;52.674;13.574;2023-06-24T14:32:25;5.93;;;2.85;;
80334;SDS011;69653;52.674;13.574;2023-06-24T14:34:51;4.30;;;2.83;;
80334;SDS011;69653;52.674;13.574;2023-06-24T14:37:16;4.68;;;2.60;;
80334;SDS011;69653;52.674;13.574;2023-06-24T14:39:42;4.87;;;2.70;;
80334;SDS011;69653;52.674;13.574;2023-06-24T14:42:07;6.57;;;3.17;;
80334;SDS011;69653;52.674;13.574;2023-06-24T14:44:32;6.00;;;3.00;;
80334;SDS011;69653;52.674;13.574;2023-06-24T14:46:58;4.53;;;2.30;;
80334;SDS011;69653;52.674;13.574;2023-06-24T14:49:23;5.73;;;2.80;;
80334;SDS011;69653;52.674;13.574;2023-06-24T14:51:48;5.27;;;3.00;;